Time;durP1;ratioP1;P1;durP2;ratioP2;P2;SDS_P1;SDS_P2;PMS_P1;PMS_P2;Temp;Humidity;BMP_temperature;BMP_pressure;BME280_temperature;BME280_humidity;BME280_pressure;Samples;Min_cycle;Max_cycle;Signal;HPM_P1;HPM_P2
2022/01/15 00:01:13;;;;;;;19.40;5.23;;;2.30;99.90;;;;;;5045372;28;20218;-42
2022/01/15 00:03:42;;;;;;;21.73;6.00;;;2.40;99.90;;;;;;5041943;28;20214;-44
2022/01/15 00:06:09;;;;;;;15.20;5.73;;;2.30;99.90;;;;;;5050902;28;20581;-40
2022/01/15 00:08:36;;;;;;;15.00;5.33;;;2.30;99.90;;;;;;5055015;28;20202;-42
2022/01/15 00:11:03;;;;;;;18.03;4.83;;;2.30;99.90;;;;;;5047881;28;20218;-41
2022/01/15 00:13:31;;;;;;;14.93;5.37;;;2.20;99.90;;;;;;5041725;28;20207;-41
2022/01/15 00:16:06;;;;;;;19.90;5.60;;;2.20;99.90;;;;;;5045843;28;20192;-43
2022/01/15 00:18:44;;;;;;;21.73;5.50;;;2.20;99.90;;;;;;5031318;28;20217;-42
2022/01/15 00:21:12;;;;;;;21.27;5.43;;;2.10;99.90;;;;;;5057123;28;20607;-42
2022/01/15 00:23:39;;;;;;;21.27;6.10;;;2.00;99.90;;;;;;5047044;28;20197;-40
2022/01/15 00:26:07;;;;;;;22.80;5.00;;;2.00;99.90;;;;;;5045517;28;20246;-43
2022/01/15 00:28:34;;;;;;;16.97;5.27;;;2.00;99.90;;;;;;5036778;28;20210;-42
2022/01/15 00:31:01;;;;;;;18.97;5.70;;;2.00;99.90;;;;;;5048643;28;20195;-44
2022/01/15 00:33:30;;;;;;;16.83;5.30;;;1.90;99.90;;;;;;5043872;28;20203;-40
2022/01/15 00:35:58;;;;;;;17.40;5.37;;;1.80;99.90;;;;;;5044834;28;20198;-41
2022/01/15 00:38:25;;;;;;;14.73;5.07;;;1.80;99.90;;;;;;5045323;28;20203;-41
2022/01/15 00:40:52;;;;;;;18.80;5.77;;;1.70;99.90;;;;;;5051645;28;20206;-41
2022/01/15 00:43:19;;;;;;;23.33;5.80;;;1.70;99.90;;;;;;5046179;28;20210;-40
2022/01/15 00:45:46;;;;;;;20.57;4.60;;;1.70;99.90;;;;;;5053225;28;20250;-39
2022/01/15 00:48:13;;;;;;;17.43;5.00;;;1.60;99.90;;;;;;5043649;28;20698;-40
2022/01/15 00:50:40;;;;;;;22.73;5.83;;;1.60;99.90;;;;;;5041340;28;20203;-43
2022/01/15 00:53:09;;;;;;;17.47;5.57;;;1.60;99.90;;;;;;5058129;28;20194;-41
2022/01/15 00:55:36;;;;;;;18.17;5.13;;;1.50;99.90;;;;;;5039750;28;20576;-40
2022/01/15 00:58:03;;;;;;;19.10;5.30;;;1.50;99.90;;;;;;5044973;28;20207;-42
2022/01/15 01:00:29;;;;;;;21.57;5.70;;;1.40;99.90;;;;;;5033979;28;20224;-42
2022/01/15 01:02:56;;;;;;;19.00;5.40;;;1.50;99.90;;;;;;5050499;28;20558;-42
2022/01/15 01:05:24;;;;;;;20.73;6.30;;;1.50;99.90;;;;;;5033046;28;20679;-40
2022/01/15 01:07:51;;;;;;;19.97;5.07;;;1.50;99.90;;;;;;5056187;28;20681;-41
2022/01/15 01:13:27;;;;;;;16.63;5.60;;;1.50;99.90;;;;;;5044844;28;20211;-41
2022/01/15 01:22:18;;;;;;;12.30;4.90;;;1.60;99.90;;;;;;5042231;28;20692;-40
2022/01/15 01:24:33;;;;;;;22.03;5.60;;;1.60;99.90;;;;;;5047831;28;20215;-43
2022/01/15 01:27:04;;;;;;;16.17;5.60;;;1.70;99.90;;;;;;5044189;28;20230;-47
2022/01/15 01:29:40;;;;;;;20.47;6.10;;;1.70;99.90;;;;;;5044273;28;21028;-42
2022/01/15 01:32:12;;;;;;;18.30;6.40;;;1.70;99.90;;;;;;5045098;28;20297;-40
2022/01/15 01:34:42;;;;;;;21.67;6.87;;;1.70;99.90;;;;;;5041287;28;20231;-43
2022/01/15 01:37:14;;;;;;;17.33;6.20;;;1.80;99.90;;;;;;5034277;28;20203;-40
2022/01/15 01:39:45;;;;;;;18.93;7.20;;;1.90;99.90;;;;;;5053694;28;20195;-40
2022/01/15 01:42:33;;;;;;;19.90;5.70;;;1.90;99.90;;;;;;5052759;28;20211;-43
2022/01/15 01:45:04;;;;;;;14.03;5.27;;;2.00;99.90;;;;;;5047736;28;20218;-41
2022/01/15 01:47:39;;;;;;;21.93;5.47;;;2.00;99.90;;;;;;5041361;28;20225;-42
2022/01/15 01:50:09;;;;;;;21.00;5.20;;;2.10;99.90;;;;;;5048481;28;20198;-45
2022/01/15 01:52:37;;;;;;;21.17;5.63;;;2.30;99.90;;;;;;5035916;28;20214;-40
2022/01/15 01:55:05;;;;;;;18.43;5.13;;;2.40;99.90;;;;;;5043760;28;20242;-41
2022/01/15 01:57:34;;;;;;;24.27;4.90;;;2.30;99.90;;;;;;5039836;28;20188;-42
2022/01/15 02:00:01;;;;;;;18.70;5.13;;;2.30;99.90;;;;;;5039661;28;20207;-42
2022/01/15 02:02:28;;;;;;;16.93;4.90;;;2.30;99.90;;;;;;5047649;28;20227;-44
2022/01/15 02:04:58;;;;;;;20.47;5.53;;;2.30;99.90;;;;;;5040346;28;20237;-41
2022/01/15 02:07:26;;;;;;;17.33;4.53;;;2.30;99.90;;;;;;5037542;28;20291;-43
2022/01/15 02:09:53;;;;;;;15.50;4.77;;;2.40;99.90;;;;;;5049797;28;20749;-40
2022/01/15 02:12:20;;;;;;;24.40;5.10;;;2.40;99.90;;;;;;5046885;28;20194;-42
2022/01/15 02:14:49;;;;;;;24.73;5.07;;;2.50;99.90;;;;;;5048982;28;20246;-40
2022/01/15 02:17:18;;;;;;;19.10;5.00;;;2.60;99.90;;;;;;5051176;28;20198;-42
2022/01/15 02:19:58;;;;;;;22.27;4.83;;;2.60;99.90;;;;;;5053030;28;20202;-39
2022/01/15 02:25:09;;;;;;;16.30;4.07;;;2.70;99.90;;;;;;5051997;28;20529;-43
2022/01/15 02:27:36;;;;;;;14.67;3.87;;;2.70;99.90;;;;;;5061310;28;20227;-41
2022/01/15 02:30:04;;;;;;;18.60;4.33;;;2.70;99.90;;;;;;5059412;28;20194;-41
2022/01/15 02:32:32;;;;;;;17.57;4.37;;;2.70;99.90;;;;;;5052996;28;21119;-41
2022/01/15 02:35:01;;;;;;;16.43;3.50;;;2.80;99.90;;;;;;5038384;28;20338;-41
2022/01/15 02:37:29;;;;;;;18.33;3.60;;;2.80;99.90;;;;;;5038164;28;20199;-43
2022/01/15 02:39:55;;;;;;;21.47;4.23;;;2.90;99.90;;;;;;5044457;28;20264;-41
2022/01/15 02:42:23;;;;;;;20.10;4.20;;;2.90;99.90;;;;;;5053867;28;20218;-42
2022/01/15 02:44:58;;;;;;;27.57;4.67;;;3.00;99.90;;;;;;5042257;28;20639;-40
2022/01/15 02:50:11;;;;;;;19.47;3.87;;;3.00;99.90;;;;;;5047298;28;20202;-40
2022/01/15 02:52:38;;;;;;;18.17;3.63;;;3.10;99.90;;;;;;5043927;28;20218;-43
2022/01/15 02:55:06;;;;;;;12.53;3.23;;;3.00;99.90;;;;;;5048298;28;20214;-41
2022/01/15 02:57:33;;;;;;;23.07;3.63;;;3.00;99.90;;;;;;5046108;28;20199;-42
2022/01/15 03:00:00;;;;;;;16.83;2.97;;;3.00;99.90;;;;;;5057330;28;20202;-44
2022/01/15 03:02:31;;;;;;;17.17;3.47;;;3.10;99.90;;;;;;5051284;28;20210;-42
2022/01/15 03:04:58;;;;;;;28.90;4.40;;;3.20;99.90;;;;;;5040287;28;20215;-41
2022/01/15 03:07:26;;;;;;;19.20;3.37;;;3.20;99.90;;;;;;5055650;28;20575;-42
2022/01/15 03:09:53;;;;;;;21.77;3.37;;;3.30;99.90;;;;;;5023276;28;20207;-42
2022/01/15 03:12:20;;;;;;;14.47;3.83;;;3.30;99.90;;;;;;5045185;28;20208;-40
2022/01/15 03:14:48;;;;;;;19.90;3.67;;;3.30;99.90;;;;;;5039714;28;20692;-41
2022/01/15 03:17:16;;;;;;;20.40;3.30;;;3.40;99.90;;;;;;5043779;28;20199;-41
2022/01/15 03:19:43;;;;;;;19.20;4.33;;;3.40;99.90;;;;;;5042374;28;20191;-39
2022/01/15 03:22:10;;;;;;;20.87;3.07;;;3.50;99.90;;;;;;5051507;28;20206;-45
2022/01/15 03:24:38;;;;;;;16.93;2.83;;;3.50;99.90;;;;;;5040724;28;20227;-40
2022/01/15 03:27:05;;;;;;;19.07;3.77;;;3.50;99.90;;;;;;5054104;28;20226;-42
2022/01/15 03:29:32;;;;;;;20.10;3.50;;;3.50;99.90;;;;;;5049437;28;20207;-40
2022/01/15 03:31:59;;;;;;;20.70;3.60;;;3.50;99.90;;;;;;5043381;28;20191;-42
2022/01/15 03:34:26;;;;;;;17.30;3.10;;;3.50;99.90;;;;;;5046256;28;20215;-42
2022/01/15 03:36:52;;;;;;;15.87;2.90;;;3.50;99.90;;;;;;5044776;28;20191;-41
2022/01/15 03:39:20;;;;;;;14.77;3.13;;;3.50;99.90;;;;;;5048676;28;20203;-42
2022/01/15 03:41:48;;;;;;;21.13;2.80;;;3.50;99.90;;;;;;5044145;28;20203;-40
2022/01/15 03:44:14;;;;;;;13.53;2.80;;;3.50;99.90;;;;;;5049147;28;20222;-45
2022/01/15 03:46:42;;;;;;;11.90;3.73;;;3.50;99.90;;;;;;5043488;28;20207;-43
2022/01/15 03:49:09;;;;;;;20.90;2.67;;;3.50;99.90;;;;;;5045001;28;20196;-41
2022/01/15 03:51:36;;;;;;;14.90;2.90;;;3.50;99.90;;;;;;5054063;28;20203;-40
2022/01/15 03:54:03;;;;;;;17.90;3.47;;;3.50;99.90;;;;;;5046287;28;20219;-42
2022/01/15 03:56:31;;;;;;;17.67;3.70;;;3.50;99.90;;;;;;5039508;28;20207;-43
2022/01/15 03:58:59;;;;;;;21.47;3.70;;;3.50;99.90;;;;;;5052445;28;20883;-42
2022/01/15 04:01:26;;;;;;;13.90;3.37;;;3.50;99.90;;;;;;5057660;28;20199;-42
2022/01/15 04:03:52;;;;;;;15.70;3.10;;;3.50;99.90;;;;;;5056488;28;20215;-46
2022/01/15 04:06:19;;;;;;;18.03;3.13;;;3.40;99.90;;;;;;5048314;28;20438;-43
2022/01/15 04:08:46;;;;;;;21.83;3.50;;;3.40;99.90;;;;;;5049221;28;20699;-42
2022/01/15 04:11:13;;;;;;;20.77;2.97;;;3.30;99.90;;;;;;5045858;28;20199;-41
2022/01/15 04:13:39;;;;;;;21.20;3.63;;;3.30;99.90;;;;;;5042700;28;20204;-41
2022/01/15 04:16:07;;;;;;;19.90;3.00;;;3.20;99.90;;;;;;5044934;28;20330;-40
2022/01/15 04:18:40;;;;;;;17.37;2.87;;;3.10;99.90;;;;;;5044616;28;20615;-40
2022/01/15 04:21:09;;;;;;;17.30;2.87;;;3.00;99.90;;;;;;5060206;28;20190;-42
2022/01/15 04:23:36;;;;;;;19.17;2.57;;;3.00;99.90;;;;;;5045051;28;20214;-42
2022/01/15 04:26:03;;;;;;;13.87;2.90;;;3.00;99.90;;;;;;5042699;28;20198;-45
2022/01/15 04:28:32;;;;;;;28.23;3.60;;;2.90;99.90;;;;;;5035852;28;20214;-41
2022/01/15 04:31:04;;;;;;;13.83;2.53;;;2.80;99.90;;;;;;5054867;28;20199;-40
2022/01/15 04:33:34;;;;;;;20.77;3.57;;;2.70;99.90;;;;;;5047804;28;20669;-44
2022/01/15 04:36:01;;;;;;;13.43;3.80;;;2.70;99.90;;;;;;5042482;28;21006;-40
2022/01/15 04:38:29;;;;;;;12.40;3.50;;;2.60;99.90;;;;;;5054765;28;20639;-41
2022/01/15 04:40:56;;;;;;;20.23;3.73;;;2.60;99.90;;;;;;5050548;28;20195;-44
2022/01/15 04:43:23;;;;;;;16.70;3.47;;;2.60;99.90;;;;;;5045153;28;20205;-41
2022/01/15 04:45:50;;;;;;;14.23;3.50;;;2.60;99.90;;;;;;5042561;28;20215;-43
2022/01/15 04:48:17;;;;;;;24.87;3.13;;;2.50;99.90;;;;;;5045336;28;20587;-42
2022/01/15 04:50:45;;;;;;;11.63;2.90;;;2.50;99.90;;;;;;5041227;28;20207;-40
2022/01/15 04:53:12;;;;;;;15.83;3.13;;;2.50;99.90;;;;;;5053282;28;20202;-42
2022/01/15 04:55:39;;;;;;;11.17;3.00;;;2.50;99.90;;;;;;5048174;28;20226;-44
2022/01/15 04:58:07;;;;;;;10.17;2.53;;;2.40;99.90;;;;;;5033239;28;20200;-39
2022/01/15 05:00:35;;;;;;;12.13;2.57;;;2.40;99.90;;;;;;5050117;28;20203;-41
2022/01/15 05:03:04;;;;;;;12.63;3.50;;;2.50;99.90;;;;;;5053877;28;20299;-41
2022/01/15 05:05:31;;;;;;;11.40;3.30;;;2.40;99.90;;;;;;5045394;28;20223;-41
2022/01/15 05:07:59;;;;;;;9.00;2.63;;;2.30;99.90;;;;;;5050392;28;20342;-40
2022/01/15 05:10:28;;;;;;;9.80;2.07;;;2.40;99.90;;;;;;5054648;28;20577;-43
2022/01/15 05:12:56;;;;;;;7.30;2.50;;;2.30;99.90;;;;;;5033209;28;20230;-40
2022/01/15 05:15:23;;;;;;;16.87;2.83;;;2.30;99.90;;;;;;5050419;28;20214;-40
2022/01/15 05:17:52;;;;;;;9.40;2.70;;;2.40;99.90;;;;;;5044884;28;20203;-40
2022/01/15 05:20:22;;;;;;;10.33;2.83;;;2.30;99.90;;;;;;5052931;28;20195;-44
2022/01/15 05:22:50;;;;;;;10.57;2.60;;;2.30;99.90;;;;;;5045470;28;20278;-40
2022/01/15 05:25:19;;;;;;;14.87;3.00;;;2.30;99.90;;;;;;5044561;28;20223;-42
2022/01/15 05:27:47;;;;;;;19.57;3.53;;;2.30;99.90;;;;;;5030830;28;22117;-43
2022/01/15 05:30:14;;;;;;;15.37;3.10;;;2.30;99.90;;;;;;5052225;28;20202;-43
2022/01/15 05:32:41;;;;;;;23.87;3.30;;;2.30;99.90;;;;;;5046307;28;20656;-40
2022/01/15 05:35:09;;;;;;;14.97;3.23;;;2.40;99.90;;;;;;5052549;28;20215;-43
2022/01/15 05:37:36;;;;;;;17.70;3.70;;;2.40;99.90;;;;;;5049892;28;20199;-43
2022/01/15 05:40:04;;;;;;;12.03;3.30;;;2.40;99.90;;;;;;5056312;28;20201;-40
2022/01/15 05:42:32;;;;;;;14.30;3.30;;;2.40;99.90;;;;;;5047762;28;20674;-40
2022/01/15 05:44:59;;;;;;;15.20;2.90;;;2.30;99.90;;;;;;5032742;28;20207;-41
2022/01/15 05:47:26;;;;;;;11.33;2.97;;;2.30;99.90;;;;;;5054695;28;20226;-42
2022/01/15 05:49:53;;;;;;;14.87;3.43;;;2.30;99.90;;;;;;5040981;28;20191;-43
2022/01/15 05:52:20;;;;;;;13.57;3.93;;;2.30;99.90;;;;;;5043175;28;20198;-41
2022/01/15 05:54:47;;;;;;;18.33;3.20;;;2.30;99.90;;;;;;5040094;28;20280;-41
2022/01/15 05:57:14;;;;;;;11.93;3.70;;;2.30;99.90;;;;;;5043844;28;20249;-43
2022/01/15 05:59:42;;;;;;;15.47;3.87;;;2.30;99.90;;;;;;5027798;28;20213;-43
2022/01/15 06:02:09;;;;;;;21.80;3.93;;;2.30;99.90;;;;;;5055046;28;20234;-41
2022/01/15 06:04:36;;;;;;;20.67;4.83;;;2.30;99.90;;;;;;5043242;28;20265;-42
2022/01/15 06:07:02;;;;;;;14.87;3.40;;;2.30;99.90;;;;;;5048135;28;20210;-42
2022/01/15 06:09:29;;;;;;;13.20;3.33;;;2.20;99.90;;;;;;5049361;28;20209;-40
2022/01/15 06:11:59;;;;;;;15.40;3.70;;;2.30;99.90;;;;;;5042376;28;20288;-40
2022/01/15 06:14:26;;;;;;;23.07;3.37;;;2.30;99.90;;;;;;5043732;28;20230;-42
2022/01/15 06:16:54;;;;;;;13.50;3.73;;;2.30;99.90;;;;;;5044638;28;20478;-40
2022/01/15 06:19:21;;;;;;;11.80;3.20;;;2.30;99.90;;;;;;5048079;28;20210;-40
2022/01/15 06:21:48;;;;;;;14.53;3.43;;;2.30;99.90;;;;;;5042306;28;20193;-40
2022/01/15 06:24:14;;;;;;;8.03;2.73;;;2.30;99.90;;;;;;5052730;28;20218;-41
2022/01/15 06:26:41;;;;;;;15.03;2.87;;;2.30;99.90;;;;;;5041753;28;20683;-40
2022/01/15 06:29:08;;;;;;;11.07;3.40;;;2.30;99.90;;;;;;5043710;28;20195;-39
2022/01/15 06:31:35;;;;;;;14.77;3.43;;;2.40;99.90;;;;;;5037529;28;20233;-43
2022/01/15 06:34:03;;;;;;;13.63;3.73;;;2.30;99.90;;;;;;5046759;28;20953;-41
2022/01/15 06:36:30;;;;;;;11.17;2.90;;;2.40;99.90;;;;;;5044267;28;20204;-41
2022/01/15 06:38:57;;;;;;;14.37;3.10;;;2.40;99.90;;;;;;5049374;28;20946;-42
2022/01/15 06:41:24;;;;;;;15.33;3.30;;;2.40;99.90;;;;;;5047555;28;20205;-43
2022/01/15 06:43:51;;;;;;;15.27;3.77;;;2.40;99.90;;;;;;5046048;28;20218;-41
2022/01/15 06:46:18;;;;;;;15.03;3.10;;;2.40;99.90;;;;;;5042397;28;20706;-43
2022/01/15 06:48:45;;;;;;;15.37;3.93;;;2.40;99.90;;;;;;5039071;28;20215;-40
2022/01/15 06:51:13;;;;;;;9.90;2.60;;;2.50;99.90;;;;;;5057479;28;20202;-43
2022/01/15 06:53:40;;;;;;;8.47;3.63;;;2.50;99.90;;;;;;5044819;28;20648;-42
2022/01/15 06:56:07;;;;;;;11.80;3.37;;;2.50;99.90;;;;;;5042576;28;20203;-43
2022/01/15 06:58:34;;;;;;;14.27;3.40;;;2.50;99.90;;;;;;5041160;28;20214;-45
2022/01/15 07:01:01;;;;;;;13.70;3.80;;;2.40;99.90;;;;;;5033715;28;20221;-43
2022/01/15 07:03:28;;;;;;;20.77;3.77;;;2.50;99.90;;;;;;5053991;28;20206;-41
2022/01/15 07:05:55;;;;;;;17.47;3.77;;;2.50;99.90;;;;;;5048875;28;20218;-41
2022/01/15 07:08:23;;;;;;;9.67;3.27;;;2.50;99.90;;;;;;5054830;28;20214;-42
2022/01/15 07:10:50;;;;;;;14.67;3.97;;;2.50;99.90;;;;;;5045306;28;20207;-43
2022/01/15 07:13:19;;;;;;;18.67;3.57;;;2.50;99.90;;;;;;5047109;28;20609;-44
2022/01/15 07:15:47;;;;;;;16.17;4.03;;;2.50;99.90;;;;;;5030354;28;20230;-39
2022/01/15 07:18:14;;;;;;;10.77;3.93;;;2.50;99.90;;;;;;5058032;28;20202;-41
2022/01/15 07:20:40;;;;;;;7.53;3.53;;;2.50;99.90;;;;;;5045886;28;20192;-40
2022/01/15 07:23:07;;;;;;;21.80;4.83;;;2.60;99.90;;;;;;5046745;28;20200;-45
2022/01/15 07:25:35;;;;;;;15.70;4.40;;;2.60;99.90;;;;;;5042842;28;20273;-41
2022/01/15 07:28:02;;;;;;;8.43;2.83;;;2.50;99.90;;;;;;5048944;28;20215;-41
2022/01/15 07:30:29;;;;;;;17.40;4.20;;;2.60;99.90;;;;;;5063575;28;20206;-39
2022/01/15 07:32:56;;;;;;;14.23;3.63;;;2.60;99.90;;;;;;5039857;28;20198;-40
2022/01/15 07:35:23;;;;;;;14.37;3.83;;;2.60;99.90;;;;;;5052907;28;20651;-40
2022/01/15 07:37:50;;;;;;;9.53;3.50;;;2.60;99.90;;;;;;5048284;28;20192;-41
2022/01/15 07:40:17;;;;;;;12.57;3.93;;;2.60;99.90;;;;;;5050595;28;20249;-41
2022/01/15 07:42:46;;;;;;;11.67;3.50;;;2.60;99.90;;;;;;5052602;28;20930;-40
2022/01/15 07:45:14;;;;;;;13.23;4.03;;;2.70;99.90;;;;;;5049522;28;20702;-40
2022/01/15 07:47:42;;;;;;;14.23;3.53;;;2.70;99.90;;;;;;5034581;28;20233;-40
2022/01/15 07:50:11;;;;;;;11.97;3.73;;;2.70;99.90;;;;;;5056858;28;20206;-40
2022/01/15 07:52:38;;;;;;;11.40;3.90;;;2.70;99.90;;;;;;5048210;28;20187;-41
2022/01/15 07:55:06;;;;;;;20.13;4.80;;;2.70;99.90;;;;;;5056070;28;20235;-40
2022/01/15 07:57:33;;;;;;;8.17;3.50;;;2.70;99.90;;;;;;5049455;28;20198;-40
2022/01/15 08:00:01;;;;;;;20.37;5.07;;;2.70;99.90;;;;;;5051635;28;20206;-40
2022/01/15 08:02:39;;;;;;;16.03;4.00;;;2.70;99.90;;;;;;5029970;28;20219;-40
2022/01/15 08:05:06;;;;;;;14.23;4.33;;;2.80;99.90;;;;;;5051468;28;20219;-40
2022/01/15 08:07:34;;;;;;;15.70;4.40;;;2.80;99.90;;;;;;5049934;28;20318;-41
2022/01/15 08:10:03;;;;;;;11.90;4.83;;;2.80;99.90;;;;;;5047155;28;20214;-40
2022/01/15 08:12:30;;;;;;;22.27;6.63;;;2.80;99.90;;;;;;5041200;28;20199;-40
2022/01/15 08:14:57;;;;;;;10.10;4.37;;;2.80;99.90;;;;;;5051995;28;20230;-44
2022/01/15 08:17:26;;;;;;;22.30;5.20;;;2.90;99.90;;;;;;5050874;28;20207;-40
2022/01/15 08:19:53;;;;;;;14.73;5.20;;;2.90;99.90;;;;;;5033853;28;20208;-40
2022/01/15 08:22:20;;;;;;;20.63;6.00;;;3.00;99.90;;;;;;5054298;28;20206;-40
2022/01/15 08:24:47;;;;;;;26.57;5.63;;;3.00;99.90;;;;;;5041183;28;20234;-40
2022/01/15 08:27:14;;;;;;;13.50;5.03;;;3.10;99.90;;;;;;5050959;28;20282;-40
2022/01/15 08:29:41;;;;;;;11.57;4.20;;;3.10;99.90;;;;;;5043099;28;20901;-42
2022/01/15 08:32:09;;;;;;;12.53;5.13;;;3.10;99.90;;;;;;5057599;28;20199;-41
2022/01/15 08:34:37;;;;;;;15.93;4.87;;;3.10;99.90;;;;;;5037605;28;20214;-43
2022/01/15 08:37:04;;;;;;;9.43;5.03;;;3.20;99.90;;;;;;5054188;28;20281;-42
2022/01/15 08:39:31;;;;;;;22.13;5.93;;;3.20;99.90;;;;;;5049607;28;20199;-42
2022/01/15 08:41:58;;;;;;;18.93;5.90;;;3.20;99.90;;;;;;5052309;28;20210;-42
2022/01/15 08:44:25;;;;;;;15.10;6.00;;;3.30;99.90;;;;;;5038179;28;21017;-41
2022/01/15 08:46:52;;;;;;;21.73;5.73;;;3.30;99.90;;;;;;5050924;28;20229;-40
2022/01/15 08:49:20;;;;;;;18.97;5.77;;;3.40;99.90;;;;;;5033474;28;20231;-40
2022/01/15 08:51:48;;;;;;;22.57;6.63;;;3.40;99.90;;;;;;5049907;28;20948;-40
2022/01/15 08:54:15;;;;;;;20.63;5.97;;;3.40;99.90;;;;;;5052111;28;20313;-43
2022/01/15 08:56:42;;;;;;;19.77;6.27;;;3.50;99.90;;;;;;5044970;28;20204;-41
2022/01/15 08:59:08;;;;;;;20.37;6.93;;;3.50;99.90;;;;;;5046807;28;20272;-44
2022/01/15 09:01:35;;;;;;;14.13;5.40;;;3.50;99.90;;;;;;5045147;28;20688;-42
2022/01/15 09:04:02;;;;;;;19.00;5.53;;;3.50;99.90;;;;;;5036468;28;20677;-40
2022/01/15 09:06:29;;;;;;;17.70;5.87;;;3.60;99.90;;;;;;5052051;28;20206;-40
2022/01/15 09:08:57;;;;;;;21.13;5.80;;;3.60;99.90;;;;;;5049061;28;20950;-40
2022/01/15 09:11:23;;;;;;;19.20;5.93;;;3.60;99.90;;;;;;5055270;28;20199;-41
2022/01/15 09:13:50;;;;;;;15.83;6.80;;;3.60;99.90;;;;;;5049024;28;20202;-41
2022/01/15 09:16:17;;;;;;;19.37;7.27;;;3.70;99.90;;;;;;5046347;28;20198;-39
2022/01/15 09:18:44;;;;;;;14.17;5.87;;;3.70;99.90;;;;;;5048008;28;20190;-40
2022/01/15 09:21:11;;;;;;;13.83;5.03;;;3.70;99.90;;;;;;5031430;28;20257;-41
2022/01/15 09:23:37;;;;;;;13.67;6.03;;;3.80;99.90;;;;;;5056232;28;20195;-41
2022/01/15 09:26:17;;;;;;;16.57;5.80;;;3.90;99.90;;;;;;5043035;28;20450;-41
2022/01/15 09:31:30;;;;;;;16.93;6.17;;;3.90;99.90;;;;;;5063084;28;20198;-41
2022/01/15 09:33:57;;;;;;;19.03;6.07;;;4.00;99.90;;;;;;5052437;28;20303;-39
2022/01/15 09:36:24;;;;;;;15.07;5.70;;;4.00;99.90;;;;;;5040905;28;20211;-40
2022/01/15 09:38:51;;;;;;;20.27;6.13;;;4.00;99.90;;;;;;5052330;28;20682;-40
2022/01/15 09:41:20;;;;;;;17.47;6.70;;;4.00;99.90;;;;;;5049856;28;20187;-40
2022/01/15 09:43:48;;;;;;;11.27;5.40;;;4.10;99.90;;;;;;5052237;28;20210;-40
2022/01/15 09:46:18;;;;;;;17.43;5.93;;;4.20;99.90;;;;;;5051454;28;20879;-40
2022/01/15 09:48:47;;;;;;;18.27;5.73;;;4.20;99.90;;;;;;5047826;28;20822;-41
2022/01/15 09:51:15;;;;;;;15.13;5.53;;;4.30;99.90;;;;;;5030615;28;20205;-44
2022/01/15 09:53:42;;;;;;;14.70;5.50;;;4.30;99.90;;;;;;5054673;28;20194;-45
2022/01/15 09:56:09;;;;;;;15.93;5.50;;;4.30;99.90;;;;;;5038025;28;20218;-45
2022/01/15 09:58:38;;;;;;;14.27;5.37;;;4.30;99.90;;;;;;5046246;28;20198;-45
2022/01/15 10:01:05;;;;;;;20.67;5.80;;;4.40;99.90;;;;;;5039678;28;20816;-43
2022/01/15 10:03:31;;;;;;;14.80;5.20;;;4.40;99.90;;;;;;5043256;28;20195;-43
2022/01/15 10:06:04;;;;;;;19.80;6.40;;;4.40;99.90;;;;;;5059648;28;20195;-42
2022/01/15 10:08:31;;;;;;;19.67;7.07;;;4.50;99.90;;;;;;5036837;28;20218;-45
2022/01/15 10:11:01;;;;;;;10.43;5.53;;;4.50;99.90;;;;;;5052389;28;20563;-42
2022/01/15 10:13:28;;;;;;;12.57;5.57;;;4.60;99.90;;;;;;5043834;28;20561;-43
2022/01/15 10:16:17;;;;;;;16.53;6.13;;;4.70;99.90;;;;;;5041027;28;20302;-41
2022/01/15 10:18:47;;;;;;;20.87;5.43;;;4.70;99.90;;;;;;5043325;28;20199;-40
2022/01/15 10:21:15;;;;;;;16.00;6.17;;;4.70;99.90;;;;;;5057058;28;20202;-41
2022/01/15 10:23:48;;;;;;;14.40;5.53;;;4.80;99.90;;;;;;5048175;28;20225;-42
2022/01/15 10:26:17;;;;;;;16.00;5.20;;;4.80;99.90;;;;;;5044022;28;20187;-41
2022/01/15 10:28:56;;;;;;;21.80;7.27;;;4.80;99.90;;;;;;5043130;28;20699;-41
2022/01/15 10:31:27;;;;;;;22.47;6.37;;;4.90;99.90;;;;;;5042360;28;20200;-42
2022/01/15 10:33:56;;;;;;;21.17;6.40;;;5.00;99.90;;;;;;5041289;28;20691;-41
2022/01/15 10:36:24;;;;;;;18.40;6.40;;;5.00;99.90;;;;;;5054782;28;20569;-43
2022/01/15 10:38:51;;;;;;;16.07;5.93;;;5.00;99.90;;;;;;5045235;28;20199;-41
2022/01/15 10:41:35;;;;;;;19.30;6.33;;;5.10;99.90;;;;;;5047348;28;20259;-41
2022/01/15 10:44:23;;;;;;;13.43;5.33;;;5.10;99.90;;;;;;5042288;28;20637;-42
2022/01/15 10:46:52;;;;;;;25.87;7.20;;;5.20;99.90;;;;;;5041592;28;20682;-41
2022/01/15 10:49:23;;;;;;;31.47;7.90;;;5.20;99.90;;;;;;5041343;28;20222;-42
2022/01/15 10:52:08;;;;;;;20.17;6.50;;;5.20;99.90;;;;;;5061038;28;20198;-41
2022/01/15 10:54:49;;;;;;;25.63;6.57;;;5.20;99.90;;;;;;5042539;28;20226;-42
2022/01/15 10:57:18;;;;;;;21.30;6.33;;;5.30;99.90;;;;;;5038779;28;20198;-44
2022/01/15 10:59:56;;;;;;;17.43;5.97;;;5.40;99.90;;;;;;5049291;28;20187;-42
2022/01/15 11:02:24;;;;;;;28.23;7.20;;;5.40;99.90;;;;;;5042032;28;20206;-41
2022/01/15 11:04:51;;;;;;;16.90;4.83;;;5.50;99.90;;;;;;5041232;28;20242;-41
2022/01/15 11:07:19;;;;;;;16.17;4.77;;;5.50;99.90;;;;;;5048533;28;20269;-44
2022/01/15 11:09:50;;;;;;;11.37;4.30;;;5.50;99.90;;;;;;5051663;28;20226;-42
2022/01/15 11:12:19;;;;;;;9.03;4.67;;;5.60;99.90;;;;;;5039261;28;20206;-41
2022/01/15 11:14:46;;;;;;;14.63;4.67;;;5.60;99.90;;;;;;5049504;28;20251;-41
2022/01/15 11:17:13;;;;;;;10.60;4.47;;;5.70;99.90;;;;;;5039487;28;20200;-43
2022/01/15 11:19:45;;;;;;;13.97;4.10;;;5.70;99.90;;;;;;5042794;28;20223;-46
2022/01/15 11:22:12;;;;;;;16.87;4.27;;;5.80;99.90;;;;;;5052466;28;20198;-41
2022/01/15 11:24:41;;;;;;;12.20;4.20;;;5.80;99.90;;;;;;5042875;28;20227;-41
2022/01/15 11:27:09;;;;;;;12.60;4.93;;;5.80;99.90;;;;;;5032462;28;20194;-41
2022/01/15 11:29:37;;;;;;;11.83;3.73;;;5.90;99.90;;;;;;5045405;28;20298;-41
2022/01/15 11:32:05;;;;;;;25.57;6.53;;;5.80;99.90;;;;;;5038665;28;20195;-41
2022/01/15 11:34:32;;;;;;;12.13;4.40;;;5.90;99.90;;;;;;5042743;28;20235;-47
2022/01/15 11:37:14;;;;;;;14.53;4.60;;;5.90;99.90;;;;;;5043960;28;20213;-42
2022/01/15 11:39:41;;;;;;;10.33;3.70;;;5.90;99.90;;;;;;5049364;28;20191;-43
2022/01/15 11:42:26;;;;;;;23.87;4.63;;;6.00;99.90;;;;;;5037029;28;20229;-42
2022/01/15 11:44:53;;;;;;;13.97;3.50;;;5.90;99.90;;;;;;5048872;28;20711;-41
2022/01/15 11:47:23;;;;;;;13.27;3.90;;;6.00;99.90;;;;;;5045909;28;20183;-44
2022/01/15 11:49:51;;;;;;;11.20;3.33;;;6.10;99.90;;;;;;5043749;28;20262;-41
2022/01/15 11:52:44;;;;;;;15.10;4.73;;;6.10;99.90;;;;;;5044227;28;20195;-41
2022/01/15 11:55:27;;;;;;;16.57;3.87;;;6.10;99.90;;;;;;5056788;28;20229;-43
2022/01/15 11:58:01;;;;;;;19.40;4.30;;;6.10;99.90;;;;;;5054662;28;20202;-42
2022/01/15 12:00:34;;;;;;;16.93;4.57;;;6.10;99.90;;;;;;5057427;28;20302;-43
2022/01/15 12:03:09;;;;;;;15.93;4.17;;;6.10;99.90;;;;;;5051304;28;20195;-41
2022/01/15 12:05:40;;;;;;;7.97;2.87;;;6.10;99.90;;;;;;5049901;28;20297;-46
2022/01/15 12:08:27;;;;;;;11.53;3.20;;;6.20;99.90;;;;;;5050312;28;20312;-48
2022/01/15 12:10:55;;;;;;;15.27;3.33;;;6.20;99.90;;;;;;5050190;28;20194;-42
2022/01/15 12:13:24;;;;;;;18.57;3.00;;;6.20;99.90;;;;;;5053696;28;20209;-44
2022/01/15 12:16:19;;;;;;;18.30;3.17;;;6.20;99.90;;;;;;5046108;28;20230;-43
2022/01/15 12:18:47;;;;;;;17.50;3.30;;;6.20;99.90;;;;;;5052256;28;20733;-42
2022/01/15 12:21:42;;;;;;;14.30;3.73;;;6.20;99.90;;;;;;5050691;28;20233;-44
2022/01/15 12:24:54;;;;;;;22.50;5.77;;;6.30;99.90;;;;;;5049877;28;21007;-46
2022/01/15 12:27:27;;;;;;;20.67;4.33;;;6.30;99.90;;;;;;5032268;28;20325;-45
2022/01/15 12:30:06;;;;;;;20.77;4.37;;;6.30;99.90;;;;;;5042584;28;20219;-42
2022/01/15 12:32:36;;;;;;;34.63;7.67;;;6.30;99.90;;;;;;5061420;28;20629;-41
2022/01/15 12:35:04;;;;;;;13.63;4.37;;;6.30;99.90;;;;;;5041133;28;20222;-41
2022/01/15 12:37:31;;;;;;;16.53;3.37;;;6.30;99.90;;;;;;5049969;28;20195;-44
2022/01/15 12:39:58;;;;;;;18.30;3.67;;;6.40;99.90;;;;;;5053185;28;20602;-42
2022/01/15 12:42:34;;;;;;;13.80;3.40;;;6.40;99.90;;;;;;5052805;28;20705;-44
2022/01/15 12:45:01;;;;;;;20.37;3.70;;;6.40;99.90;;;;;;5036118;28;20229;-42
2022/01/15 12:47:42;;;;;;;19.67;3.80;;;6.40;99.90;;;;;;5056948;28;20241;-44
2022/01/15 12:50:09;;;;;;;18.93;2.90;;;6.50;99.90;;;;;;5051196;28;20210;-44
2022/01/15 12:52:36;;;;;;;13.23;2.90;;;6.50;99.90;;;;;;5047032;28;20203;-44
2022/01/15 12:55:03;;;;;;;14.67;3.63;;;6.50;99.90;;;;;;5044649;28;20214;-42
2022/01/15 12:57:42;;;;;;;14.53;3.40;;;6.50;99.90;;;;;;5056140;28;20191;-44
2022/01/15 13:00:12;;;;;;;15.97;2.73;;;6.60;99.90;;;;;;5037368;28;20282;-42
2022/01/15 13:02:39;;;;;;;17.13;3.20;;;6.60;99.90;;;;;;5051060;28;20278;-40
2022/01/15 13:05:10;;;;;;;15.90;3.20;;;6.60;99.90;;;;;;5046237;28;20968;-40
2022/01/15 13:07:48;;;;;;;12.00;3.20;;;6.70;99.90;;;;;;5052434;28;20194;-41
2022/01/15 13:10:47;;;;;;;12.23;3.10;;;6.70;99.90;;;;;;5056351;28;20206;-44
2022/01/15 13:13:20;;;;;;;8.17;2.77;;;6.70;99.90;;;;;;5030739;28;20203;-43
2022/01/15 13:15:48;;;;;;;12.67;2.83;;;6.70;99.90;;;;;;5035171;28;20219;-43